Latest Weather Observations for East Sale Airport

IDV60801

Issued at 5:12 am EDT Tuesday 19 January 2021 (issued every 10 minutes, with the page automatically refreshed every 10 minutes)

About weather observations | Map of weather stations | Latest weather observations for VIC | Other Formats
Station Details ID: 085314 Name: EAST SALE AIRPORT Lat: -38.10 Lon: 147.14 Height: 5.3 m
Data from the previous 72 hours. | See also: Recent months at East Sale Airport
Date/Time
EDT
Temp
°C
App
Temp
°C
Dew
Point
°C
Rel
Hum
%
Delta-T
°C
Wind Press
QNH
hPa
Press
MSL
hPa
Rain since
9am
mm
Dir  Spd
km/h
Gust
km/h
Spd
kts
Gust
kts
19/05:00am 12.6 9.2 9.1 79 1.8 WSW 17 26 9 14 1018.5 1018.8 0.0
19/04:30am 13.1 9.4 9.4 78 1.9 W 19 26 10 14 1017.8 - 0.0
19/04:00am 13.3 9.6 10.3 82 1.6 W 20 28 11 15 1017.5 - 0.0
19/03:30am 13.3 10.7 10.7 84 1.4 W 15 20 8 11 1017.6 - 0.0
19/03:00am 13.8 10.0 11.0 83 1.5 W 22 30 12 16 1017.1 - 0.0
19/02:30am 14.1 10.7 11.4 84 1.4 W 20 30 11 16 1017.1 - 0.0
19/02:00am 14.1 11.4 11.6 85 1.3 W 17 24 9 13 1017.1 - 0.0
19/01:30am 14.5 11.2 11.7 83 1.5 WNW 20 32 11 17 1017.0 - 0.0
19/01:00am 14.9 10.9 11.7 81 1.7 W 24 35 13 19 1016.7 - 0.0
19/12:30am 14.6 10.6 11.7 83 1.6 W 24 32 13 17 1016.6 - 0.0
19/12:00am 15.1 10.8 11.9 81 1.7 W 26 41 14 22 1016.2 - 0.0
 
Date/Time
EDT
Temp
°C
App
Temp
°C
Dew
Point
°C
Rel
Hum
%
Delta-T
°C
Wind Press
QNH
hPa
Press
MSL
hPa
Rain since
9am
mm
Dir  Spd
km/h
Gust
km/h
Spd
kts
Gust
kts
18/11:30pm 15.0 10.2 11.6 80 1.8 W 28 41 15 22 1016.0 - 0.0
18/11:00pm 14.9 10.1 11.7 81 1.7 W 28 37 15 20 1016.3 - 0.0
18/10:30pm 15.2 9.7 11.8 80 1.8 W 32 43 17 23 1016.1 - 0.0
18/10:00pm 15.7 10.9 11.7 77 2.2 W 28 43 15 23 1016.1 - 0.0
18/09:30pm 16.4 11.1 11.1 71 2.8 WSW 30 39 16 21 1015.8 - 0.0
18/09:24pm 16.5 11.6 11.2 71 2.9 WSW 28 46 15 25 1015.7 - 0.0
18/09:00pm 16.7 12.1 11.2 70 3.0 WSW 26 37 14 20 1015.5 - 0.0
18/08:30pm 16.7 10.7 10.8 68 3.2 W 33 52 18 28 1015.1 - 0.0
18/08:18pm 17.5 11.4 10.4 63 3.8 W 33 52 18 28 1014.6 - 0.0
18/08:00pm 18.1 11.3 10.7 62 4.0 WSW 37 52 20 28 1014.5 - 0.0
18/07:32pm 18.8 12.1 10.9 60 4.3 W 37 56 20 30 1013.8 - 0.0
18/07:30pm 18.8 12.5 10.9 60 4.3 W 35 52 19 28 1013.8 - 0.0
18/07:02pm 19.1 12.8 11.2 60 4.3 W 35 54 19 29 1013.1 - 0.0
18/07:00pm 19.1 12.5 11.2 60 4.3 W 37 54 20 29 1013.2 - 0.0
18/06:30pm 20.2 12.5 11.4 57 4.8 W 43 63 23 34 1012.6 - 0.0
18/06:00pm 21.9 14.8 12.2 54 5.5 W 41 61 22 33 1012.5 - 0.0
18/05:30pm 22.1 15.1 11.2 50 6.0 W 39 61 21 33 1012.3 - 0.0
18/05:00pm 23.7 16.0 10.0 42 7.5 WSW 41 63 22 34 1012.3 - 0.0
18/04:30pm 23.8 15.7 10.1 42 7.5 W 43 63 23 34 1012.1 - 0.0
18/04:00pm 23.9 16.5 9.9 41 7.7 WSW 39 57 21 31 1012.2 - 0.0
18/03:30pm 24.4 16.9 10.7 42 7.6 W 41 65 22 35 1012.3 - 0.0
18/03:00pm 23.0 15.9 10.8 46 6.8 W 39 57 21 31 1012.5 - 0.0
18/02:30pm 23.0 15.0 10.4 45 6.9 WSW 43 61 23 33 1012.5 - 0.0
18/02:00pm 22.6 15.6 11.4 49 6.3 W 39 61 21 33 1012.6 - 0.0
18/01:30pm 22.2 15.4 10.7 48 6.3 W 37 57 20 31 1013.0 - 0.0
18/01:00pm 21.6 13.9 11.6 53 5.6 W 43 59 23 32 1013.8 - 0.0
18/12:39pm 22.1 15.7 12.1 53 5.6 W 37 56 20 30 1013.9 - 0.0
18/12:30pm 21.2 13.7 12.1 56 5.1 W 43 57 23 31 1014.1 - 0.0
18/12:02pm 21.6 15.6 12.2 55 5.3 W 35 56 19 30 1014.1 - 0.0
18/12:00pm 20.7 14.1 11.3 55 5.2 W 37 50 20 27 1014.3 - 0.0
18/11:30am 19.9 14.2 11.7 59 4.5 W 33 52 18 28 1014.5 - 0.0
18/11:23am 20.0 14.4 12.0 60 4.5 W 33 52 18 28 1014.7 - 0.0
18/11:00am 19.9 14.7 11.7 59 4.5 W 30 43 16 23 1014.9 - 0.0
18/10:30am 19.9 13.5 11.9 60 4.4 WSW 37 48 20 26 1015.0 - 0.0
18/10:00am 19.9 14.2 11.9 60 4.4 WSW 33 50 18 27 1015.2 - 0.0
18/09:30am 19.1 13.8 11.4 61 4.2 W 30 43 16 23 1015.3 - 0.0
18/09:00am 18.8 14.1 10.6 59 4.4 W 26 39 14 21 1015.3 - 0.0
18/08:30am 18.1 13.4 10.5 61 4.1 W 26 39 14 21 1015.4 - 0.0
18/08:00am 17.0 13.6 11.1 68 3.2 W 20 28 11 15 1015.3 - 0.0
18/07:30am 15.8 13.7 11.0 73 2.6 WNW 13 17 7 9 1015.3 - 0.0
18/07:00am 14.7 12.6 11.1 79 1.9 W 13 17 7 9 1015.4 - 0.0
18/06:30am 14.2 11.6 10.8 80 1.8 W 15 20 8 11 1015.0 - 0.0
18/06:00am 14.2 11.6 10.8 80 1.8 W 15 22 8 12 1015.1 - 0.0
18/05:30am 14.5 11.5 10.5 77 2.1 W 17 30 9 16 1015.0 - 0.0
18/05:00am 15.2 11.3 10.8 75 2.3 W 22 33 12 18 1014.8 - 0.0
18/04:30am 15.4 11.8 10.4 72 2.6 W 20 32 11 17 1014.6 - 0.0
18/04:00am 15.5 11.5 10.3 71 2.7 W 22 33 12 18 1014.7 - 0.0
18/03:30am 15.3 11.3 10.5 73 2.5 WNW 22 33 12 18 1014.9 - 0.0
18/03:00am 15.3 10.6 10.7 74 2.4 W 26 35 14 19 1015.0 - 0.0
18/02:30am 15.3 11.7 10.5 73 2.5 W 20 28 11 15 1015.5 - 0.0
18/02:00am 14.8 11.2 10.4 75 2.3 W 20 30 11 16 1015.7 - 0.0
18/01:30am 14.6 9.7 10.0 74 2.4 W 26 39 14 21 1015.7 - 0.0
18/01:00am 14.4 8.6 9.6 73 2.5 W 30 43 16 23 1015.9 - 0.0
18/12:41am 14.3 9.0 9.7 74 2.4 W 28 46 15 25 1016.3 - 0.0
18/12:30am 14.2 9.3 9.8 75 2.3 W 26 37 14 20 1016.4 - 0.0
18/12:00am 14.2 9.6 9.6 74 2.4 W 24 35 13 19 1016.5 - 0.0
 
Date/Time
EDT
Temp
°C
App
Temp
°C
Dew
Point
°C
Rel
Hum
%
Delta-T
°C
Wind Press
QNH
hPa
Press
MSL
hPa
Rain since
9am
mm
Dir  Spd
km/h
Gust
km/h
Spd
kts
Gust
kts
17/11:30pm 14.3 9.7 9.7 74 2.4 W 24 33 13 18 1016.7 - 0.0
17/11:00pm 14.5 10.7 9.7 73 2.5 W 20 28 11 15 1016.6 - 0.0
17/10:30pm 15.0 11.1 9.4 69 2.9 W 20 28 11 15 1016.6 - 0.0
17/10:00pm 15.6 11.9 9.3 66 3.2 WSW 19 26 10 14 1016.4 - 0.0
17/09:30pm 16.3 12.9 9.3 63 3.6 WSW 17 24 9 13 1016.2 - 0.0
17/09:00pm 17.1 13.3 9.0 59 4.2 WSW 19 26 10 14 1016.0 - 0.0
17/08:30pm 18.1 13.9 8.4 53 5.0 WSW 20 35 11 19 1015.5 - 0.0
17/08:00pm 19.2 14.4 7.3 46 6.0 W 22 32 12 17 1015.1 - 0.0
17/07:30pm 19.7 14.5 7.4 45 6.3 WSW 24 35 13 19 1015.2 - 0.0
17/07:00pm 20.3 13.8 8.3 46 6.2 W 32 44 17 24 1014.9 - 0.0
17/06:30pm 21.4 15.4 8.7 44 6.7 WSW 30 43 16 23 1014.7 - 0.0
17/06:00pm 21.8 15.8 6.9 38 7.6 W 28 35 15 19 1014.5 - 0.0
17/05:30pm 22.1 15.4 7.5 39 7.6 W 32 46 17 25 1014.4 - 0.0
17/05:16pm 21.9 15.7 7.7 40 7.4 WNW 30 48 16 26 1014.3 - 0.0
17/05:00pm 22.2 15.7 8.0 40 7.4 W 32 44 17 24 1014.5 - 0.0
17/04:33pm 22.4 16.6 7.8 39 7.6 WSW 28 48 15 26 1014.7 - 0.0
17/04:30pm 22.6 17.2 8.0 39 7.7 WSW 26 37 14 20 1014.8 - 0.0
17/04:00pm 23.0 17.0 8.7 40 7.6 W 30 43 16 23 1015.1 - 0.0
17/03:30pm 22.8 17.0 8.1 39 7.7 W 28 43 15 23 1015.1 - 0.0
17/03:00pm 22.8 17.0 7.8 38 7.8 WSW 28 43 15 23 1015.4 - 0.0
17/02:31pm 22.2 16.0 8.0 40 7.4 W 30 48 16 26 1015.6 - 0.0
17/02:30pm 22.0 15.3 7.4 39 7.6 W 32 48 17 26 1015.5 - 0.0
17/02:00pm 20.2 14.2 7.2 43 6.6 W 28 43 15 23 1015.9 - 0.0
17/01:30pm 20.7 14.3 7.0 41 7.0 W 30 46 16 25 1015.9 - 0.0
17/01:29pm 21.0 15.1 7.3 41 7.0 W 28 46 15 25 1016.0 - 0.0
17/01:00pm 21.6 15.7 5.9 36 7.9 WSW 26 43 14 23 1016.2 - 0.0
17/12:30pm 21.0 14.9 6.5 39 7.3 WSW 28 43 15 23 1016.4 - 0.0
17/12:00pm 21.4 15.3 6.5 38 7.5 WSW 28 39 15 21 1016.5 - 0.0
17/11:30am 19.5 12.4 5.6 40 6.8 W 32 39 17 21 1016.5 - 0.0
17/11:00am 19.1 13.0 6.6 44 6.2 W 28 44 15 24 1016.6 - 0.0
17/10:30am 18.6 13.2 8.0 50 5.4 W 26 41 14 22 1016.6 - 0.0
17/10:00am 17.2 12.4 7.5 53 4.9 W 22 30 12 16 1016.5 - 0.0
17/09:30am 16.4 10.6 8.1 58 4.2 WSW 28 43 15 23 1016.8 - 0.0
17/09:00am 16.0 11.0 8.2 60 3.9 W 24 37 13 20 1016.8 - 0.4
17/08:30am 15.7 12.0 9.4 66 3.3 W 19 26 10 14 1016.5 - 0.4
17/08:00am 13.4 10.0 9.1 75 2.2 WNW 17 22 9 12 1016.2 - 0.4
17/07:30am 12.7 9.6 9.0 78 1.9 WNW 15 20 8 11 1015.9 - 0.4
17/07:00am 11.7 9.0 8.9 83 1.4 WNW 13 19 7 10 1015.8 - 0.4
17/06:30am 11.2 8.8 8.8 85 1.2 SW 11 17 6 9 1015.6 - 0.4
17/06:00am 11.2 8.9 9.1 87 1.0 NNW 11 13 6 7 1015.1 - 0.4
17/05:30am 10.5 8.0 8.3 86 1.1 NW 11 13 6 7 1015.0 - 0.4
17/05:00am 11.7 8.9 8.7 82 1.5 WNW 13 19 7 10 1014.8 - 0.4
17/04:30am 12.5 9.8 9.1 80 1.7 W 13 17 7 9 1014.4 - 0.4
17/04:00am 12.3 8.9 9.3 82 1.5 WNW 17 24 9 13 1014.3 - 0.4
17/03:30am 12.4 9.8 9.2 81 1.6 WNW 13 15 7 8 1014.1 - 0.4
17/03:00am 12.8 9.6 9.8 82 1.5 WNW 17 26 9 14 1014.1 - 0.4
17/02:30am 13.1 10.3 10.1 82 1.5 WNW 15 20 8 11 1014.4 - 0.4
17/02:00am 13.8 9.2 9.8 77 2.1 W 24 41 13 22 1014.3 - 0.4
17/01:30am 13.9 10.4 10.1 78 2.0 WNW 19 24 10 13 1014.2 - 0.4
17/01:00am 13.7 10.2 10.1 79 1.9 W 19 26 10 14 1014.0 - 0.4
17/12:30am 14.0 10.9 10.4 79 1.9 W 17 24 9 13 1014.0 - 0.4
17/12:00am 14.2 10.6 10.4 78 2.0 WNW 20 33 11 18 1013.8 - 0.4
 
Date/Time
EDT
Temp
°C
App
Temp
°C
Dew
Point
°C
Rel
Hum
%
Delta-T
°C
Wind Press
QNH
hPa
Press
MSL
hPa
Rain since
9am
mm
Dir  Spd
km/h
Gust
km/h
Spd
kts
Gust
kts
16/11:30pm 14.3 10.6 10.3 77 2.1 WNW 20 26 11 14 1013.7 - 0.4
16/11:00pm 14.2 9.6 9.8 75 2.3 W 24 37 13 20 1013.5 - 0.4
16/10:30pm 15.4 9.9 9.3 67 3.1 W 28 43 15 23 1013.2 - 0.4
16/10:00pm 15.3 10.8 10.1 71 2.7 W 24 35 13 19 1013.2 - 0.4
16/09:30pm 15.4 9.4 10.2 71 2.7 W 32 46 17 25 1012.8 - 0.4
16/09:00pm 16.1 10.0 9.8 66 3.3 W 32 50 17 27 1012.4 - 0.4
16/08:57pm 16.2 10.5 9.8 66 3.3 WSW 30 50 16 27 1012.3 - 0.4
16/08:30pm 16.1 11.6 11.3 73 2.6 W 26 41 14 22 1011.8 - 0.4
16/08:00pm 15.9 11.0 11.3 74 2.5 W 28 41 15 22 1011.4 - 0.4
16/07:45pm 16.5 11.3 11.6 73 2.7 W 30 48 16 26 1011.3 - 0.4
16/07:30pm 16.3 10.8 11.7 74 2.5 W 32 46 17 25 1011.3 - 0.4
16/07:00pm 17.4 10.3 10.8 65 3.5 W 39 63 21 34 1010.5 - 0.4
16/06:59pm 17.5 10.4 10.9 65 3.6 W 39 63 21 34 1010.6 - 0.4
16/06:58pm 17.5 9.9 10.6 64 3.7 W 41 59 22 32 1010.4 - 0.4
16/06:32pm 18.3 12.4 10.4 60 4.2 WNW 32 50 17 27 1009.7 - 0.4
16/06:30pm 18.6 13.1 10.7 60 4.3 WNW 30 41 16 22 1009.7 - 0.4
16/06:05pm 18.0 12.4 10.1 60 4.2 WNW 30 50 16 27 1009.9 - 0.4
16/06:00pm 18.1 12.5 10.2 60 4.2 WNW 30 43 16 23 1009.9 - 0.4
16/05:30pm 18.8 12.4 9.3 54 5.0 WNW 33 52 18 28 1009.8 - 0.4
16/05:00pm 18.4 11.0 10.0 58 4.5 W 39 57 21 31 1010.3 - 0.4
16/04:30pm 17.9 11.4 10.5 62 4.0 W 35 59 19 32 1010.5 - 0.4
16/04:00pm 17.8 11.2 11.4 66 3.5 W 37 59 20 32 1010.7 - 0.4
16/03:30pm 17.3 11.0 10.9 66 3.4 W 35 54 19 29 1010.9 - 0.4
16/03:00pm 16.7 10.5 12.7 77 2.2 W 37 59 20 32 1011.2 - 0.2
16/02:45pm 15.3 10.2 10.7 74 2.4 W 28 46 15 25 1011.2 - 0.2
16/02:30pm 16.1 12.2 13.2 83 1.6 W 26 39 14 21 1011.4 - 0.2
16/02:03pm 16.2 9.5 9.6 65 3.4 W 35 54 19 29 1011.6 - 0.2
16/02:00pm 16.9 9.3 9.1 60 4.0 W 39 54 21 29 1011.5 - 0.2
16/01:30pm 17.8 9.0 9.7 59 4.3 W 46 67 25 36 1011.4 - 0.2
16/01:05pm 16.9 9.4 9.6 62 3.8 W 39 57 21 31 1011.4 - 0.2
16/01:00pm 16.3 8.4 9.3 63 3.6 W 41 57 22 31 1011.3 - 0.2
16/12:30pm 17.4 10.2 9.3 59 4.2 W 37 59 20 32 1011.1 - 0.2
16/12:00pm 17.3 10.5 10.7 65 3.5 W 37 61 20 33 1011.0 - 0.2
16/11:54am 17.3 11.1 9.2 59 4.2 W 32 50 17 27 1010.7 - 0.2
16/11:30am 15.7 8.8 8.7 63 3.6 W 35 52 19 28 1010.5 - 0.2
16/11:09am 17.5 12.2 9.9 61 4.0 W 28 52 15 28 1010.4 - 0.2
16/11:00am 17.8 12.7 10.7 63 3.8 W 28 44 15 24 1010.4 - 0.2
16/10:30am 16.2 10.3 10.3 68 3.1 W 32 48 17 26 1010.6 - 0.0
16/10:00am 15.6 10.2 10.8 73 2.6 W 30 48 16 26 1010.6 - 0.0
16/09:31am 17.1 11.9 11.6 70 3.0 W 30 48 16 26 1010.5 - 0.0
16/09:30am 16.4 10.6 10.9 70 2.9 W 32 48 17 26 1010.5 - 0.0
16/09:00am 14.9 10.0 9.9 72 2.6 W 26 35 14 19 1010.5 - 2.4
16/08:30am 14.4 8.7 9.8 74 2.4 W 30 43 16 23 1010.3 - 2.4
16/08:00am 13.3 9.4 9.4 77 2.0 WNW 20 35 11 19 1010.1 - 2.4
16/07:30am 12.5 8.7 9.1 80 1.7 WNW 19 26 10 14 1009.9 - 2.4
16/07:00am 11.9 7.4 8.6 80 1.6 W 22 32 12 17 1009.6 - 2.4
16/06:30am 11.1 7.0 8.7 85 1.2 WNW 20 30 11 16 1008.9 - 2.4
16/06:00am 10.7 7.3 9.0 89 0.8 WNW 17 20 9 11 1008.7 - 2.4
16/05:30am 10.7 6.7 9.0 89 0.8 WNW 20 30 11 16 1008.6 - 2.4

Other formats

Comma delimited format used in spreadsheet applications
http://www.bom.gov.au/fwo/IDV60801/IDV60801.95907.axf

JavaScript Object Notation format (JSON) in row-major order
http://www.bom.gov.au/fwo/IDV60801/IDV60801.95907.json

Data quality

Most of these data are generated automatically and are frequently updated. Quality checks on data are not normally performed. It is possible for incorrect values to appear. Refer to information at About Latest Weather Observations and please check the disclaimer before using these data.